sensor_id;sensor_type;location;lat;lon;timestamp;P1;durP1;ratioP1;P2;durP2;ratioP2
48241;SDS011;34041;51.812;4.622;2023-07-20T00:02:43;3.60;;;2.35;;
48241;SDS011;34041;51.812;4.622;2023-07-20T00:05:44;6.32;;;2.40;;
48241;SDS011;34041;51.812;4.622;2023-07-20T00:08:45;3.22;;;1.98;;
48241;SDS011;34041;51.812;4.622;2023-07-20T00:11:49;4.63;;;2.30;;
48241;SDS011;34041;51.812;4.622;2023-07-20T00:14:50;3.13;;;1.98;;
48241;SDS011;34041;51.812;4.622;2023-07-20T00:17:53;4.28;;;2.00;;
48241;SDS011;34041;51.812;4.622;2023-07-20T00:20:53;6.57;;;2.67;;
48241;SDS011;34041;51.812;4.622;2023-07-20T00:23:53;4.00;;;2.17;;
48241;SDS011;34041;51.812;4.622;2023-07-20T00:26:54;4.40;;;2.00;;
48241;SDS011;34041;51.812;4.622;2023-07-20T00:29:54;4.80;;;2.90;;
48241;SDS011;34041;51.812;4.622;2023-07-20T00:32:54;4.50;;;2.27;;
48241;SDS011;34041;51.812;4.622;2023-07-20T00:35:54;2.30;;;1.60;;
48241;SDS011;34041;51.812;4.622;2023-07-20T00:38:55;3.72;;;2.00;;
48241;SDS011;34041;51.812;4.622;2023-07-20T00:41:55;3.90;;;2.00;;
48241;SDS011;34041;51.812;4.622;2023-07-20T00:44:55;4.15;;;2.33;;
48241;SDS011;34041;51.812;4.622;2023-07-20T00:47:55;4.20;;;2.40;;
48241;SDS011;34041;51.812;4.622;2023-07-20T00:50:57;6.28;;;3.00;;
48241;SDS011;34041;51.812;4.622;2023-07-20T00:53:57;4.03;;;1.90;;
48241;SDS011;34041;51.812;4.622;2023-07-20T00:56:58;3.30;;;1.92;;
48241;SDS011;34041;51.812;4.622;2023-07-20T01:00:00;4.22;;;2.42;;
48241;SDS011;34041;51.812;4.622;2023-07-20T01:03:01;5.32;;;2.35;;
48241;SDS011;34041;51.812;4.622;2023-07-20T01:09:08;4.82;;;2.45;;
48241;SDS011;34041;51.812;4.622;2023-07-20T01:12:42;5.55;;;3.35;;
48241;SDS011;34041;51.812;4.622;2023-07-20T01:15:35;5.00;;;2.95;;
48241;SDS011;34041;51.812;4.622;2023-07-20T01:18:35;3.23;;;2.13;;
48241;SDS011;34041;51.812;4.622;2023-07-20T01:34:19;3.53;;;2.43;;
48241;SDS011;34041;51.812;4.622;2023-07-20T01:37:22;4.20;;;2.40;;
48241;SDS011;34041;51.812;4.622;2023-07-20T01:40:27;4.03;;;2.58;;
48241;SDS011;34041;51.812;4.622;2023-07-20T01:43:28;4.20;;;2.40;;
48241;SDS011;34041;51.812;4.622;2023-07-20T01:46:28;4.73;;;2.93;;
48241;SDS011;34041;51.812;4.622;2023-07-20T01:49:28;3.83;;;1.90;;
48241;SDS011;34041;51.812;4.622;2023-07-20T01:52:28;2.73;;;2.20;;
48241;SDS011;34041;51.812;4.622;2023-07-20T01:55:29;2.45;;;1.75;;
48241;SDS011;34041;51.812;4.622;2023-07-20T01:58:29;4.07;;;2.33;;
48241;SDS011;34041;51.812;4.622;2023-07-20T02:01:29;3.43;;;1.90;;
48241;SDS011;34041;51.812;4.622;2023-07-20T02:04:30;2.40;;;1.70;;
48241;SDS011;34041;51.812;4.622;2023-07-20T02:07:30;2.53;;;1.40;;
48241;SDS011;34041;51.812;4.622;2023-07-20T02:10:30;3.60;;;1.80;;
48241;SDS011;34041;51.812;4.622;2023-07-20T02:13:31;3.07;;;1.90;;
48241;SDS011;34041;51.812;4.622;2023-07-20T02:16:31;2.67;;;1.60;;
48241;SDS011;34041;51.812;4.622;2023-07-20T02:19:31;3.15;;;1.73;;
48241;SDS011;34041;51.812;4.622;2023-07-20T02:22:31;3.87;;;1.60;;
48241;SDS011;34041;51.812;4.622;2023-07-20T02:25:31;3.73;;;1.87;;
48241;SDS011;34041;51.812;4.622;2023-07-20T02:28:32;3.20;;;1.35;;
48241;SDS011;34041;51.812;4.622;2023-07-20T02:31:32;3.27;;;1.80;;
48241;SDS011;34041;51.812;4.622;2023-07-20T02:34:32;4.20;;;1.60;;
48241;SDS011;34041;51.812;4.622;2023-07-20T02:37:33;1.60;;;1.10;;
48241;SDS011;34041;51.812;4.622;2023-07-20T02:40:33;2.43;;;1.60;;
48241;SDS011;34041;51.812;4.622;2023-07-20T02:43:33;2.25;;;1.40;;
48241;SDS011;34041;51.812;4.622;2023-07-20T02:46:33;2.87;;;1.67;;
48241;SDS011;34041;51.812;4.622;2023-07-20T02:49:35;3.22;;;1.48;;
48241;SDS011;34041;51.812;4.622;2023-07-20T02:52:35;2.40;;;1.15;;
48241;SDS011;34041;51.812;4.622;2023-07-20T02:55:35;2.47;;;1.37;;
48241;SDS011;34041;51.812;4.622;2023-07-20T02:58:39;2.67;;;1.47;;
48241;SDS011;34041;51.812;4.622;2023-07-20T03:01:40;3.42;;;1.67;;
48241;SDS011;34041;51.812;4.622;2023-07-20T03:04:42;2.78;;;1.48;;
48241;SDS011;34041;51.812;4.622;2023-07-20T03:07:42;2.83;;;1.67;;
48241;SDS011;34041;51.812;4.622;2023-07-20T03:10:43;2.20;;;1.63;;
48241;SDS011;34041;51.812;4.622;2023-07-20T03:13:43;3.00;;;1.67;;
48241;SDS011;34041;51.812;4.622;2023-07-20T03:16:44;2.25;;;1.48;;
48241;SDS011;34041;51.812;4.622;2023-07-20T03:19:44;2.63;;;1.50;;
48241;SDS011;34041;51.812;4.622;2023-07-20T03:22:44;3.25;;;1.75;;
48241;SDS011;34041;51.812;4.622;2023-07-20T03:25:45;3.53;;;1.80;;
48241;SDS011;34041;51.812;4.622;2023-07-20T03:28:45;3.93;;;2.27;;
48241;SDS011;34041;51.812;4.622;2023-07-20T03:31:45;3.67;;;1.87;;
48241;SDS011;34041;51.812;4.622;2023-07-20T03:34:46;3.73;;;1.60;;
48241;SDS011;34041;51.812;4.622;2023-07-20T03:37:46;2.53;;;1.57;;
48241;SDS011;34041;51.812;4.622;2023-07-20T03:40:59;2.40;;;1.60;;
48241;SDS011;34041;51.812;4.622;2023-07-20T03:43:59;2.30;;;1.30;;
48241;SDS011;34041;51.812;4.622;2023-07-20T03:47:00;4.00;;;2.28;;
48241;SDS011;34041;51.812;4.622;2023-07-20T03:50:00;2.90;;;1.88;;
48241;SDS011;34041;51.812;4.622;2023-07-20T03:53:01;2.97;;;1.92;;
48241;SDS011;34041;51.812;4.622;2023-07-20T03:56:01;2.83;;;1.60;;
48241;SDS011;34041;51.812;4.622;2023-07-20T03:59:01;2.67;;;1.90;;
48241;SDS011;34041;51.812;4.622;2023-07-20T04:02:02;2.80;;;1.63;;
48241;SDS011;34041;51.812;4.622;2023-07-20T04:05:02;2.10;;;1.38;;
48241;SDS011;34041;51.812;4.622;2023-07-20T04:08:02;3.35;;;1.63;;
48241;SDS011;34041;51.812;4.622;2023-07-20T04:11:02;3.80;;;1.70;;
48241;SDS011;34041;51.812;4.622;2023-07-20T04:14:03;2.80;;;1.02;;
48241;SDS011;34041;51.812;4.622;2023-07-20T04:17:03;3.20;;;2.30;;
48241;SDS011;34041;51.812;4.622;2023-07-20T04:20:05;2.50;;;1.60;;
48241;SDS011;34041;51.812;4.622;2023-07-20T04:23:06;3.33;;;2.53;;
48241;SDS011;34041;51.812;4.622;2023-07-20T04:26:06;5.45;;;2.33;;
48241;SDS011;34041;51.812;4.622;2023-07-20T04:29:06;3.35;;;2.13;;
48241;SDS011;34041;51.812;4.622;2023-07-20T04:32:07;11.23;;;2.53;;
48241;SDS011;34041;51.812;4.622;2023-07-20T04:35:07;5.30;;;2.15;;
48241;SDS011;34041;51.812;4.622;2023-07-20T04:38:08;5.03;;;2.00;;
48241;SDS011;34041;51.812;4.622;2023-07-20T04:41:08;5.90;;;2.63;;
48241;SDS011;34041;51.812;4.622;2023-07-20T04:44:08;8.77;;;2.20;;
48241;SDS011;34041;51.812;4.622;2023-07-20T04:47:09;6.03;;;2.10;;
48241;SDS011;34041;51.812;4.622;2023-07-20T04:50:09;4.20;;;1.73;;
48241;SDS011;34041;51.812;4.622;2023-07-20T04:53:09;7.78;;;2.95;;
48241;SDS011;34041;51.812;4.622;2023-07-20T04:56:10;7.22;;;2.80;;
48241;SDS011;34041;51.812;4.622;2023-07-20T04:59:10;2.55;;;1.52;;
48241;SDS011;34041;51.812;4.622;2023-07-20T05:02:11;5.60;;;1.85;;
48241;SDS011;34041;51.812;4.622;2023-07-20T05:05:11;3.57;;;1.70;;
48241;SDS011;34041;51.812;4.622;2023-07-20T05:08:11;3.00;;;1.70;;
48241;SDS011;34041;51.812;4.622;2023-07-20T05:11:11;3.00;;;1.47;;
48241;SDS011;34041;51.812;4.622;2023-07-20T05:14:12;4.63;;;1.50;;
48241;SDS011;34041;51.812;4.622;2023-07-20T05:17:12;3.37;;;1.53;;
48241;SDS011;34041;51.812;4.622;2023-07-20T05:20:12;3.33;;;1.50;;
48241;SDS011;34041;51.812;4.622;2023-07-20T05:23:13;2.22;;;1.17;;
48241;SDS011;34041;51.812;4.622;2023-07-20T05:26:13;2.35;;;1.48;;
48241;SDS011;34041;51.812;4.622;2023-07-20T05:29:13;3.90;;;1.55;;
48241;SDS011;34041;51.812;4.622;2023-07-20T05:32:14;4.15;;;1.17;;
48241;SDS011;34041;51.812;4.622;2023-07-20T05:35:14;2.65;;;1.38;;
48241;SDS011;34041;51.812;4.622;2023-07-20T05:38:16;3.20;;;1.10;;
48241;SDS011;34041;51.812;4.622;2023-07-20T05:41:16;1.60;;;0.93;;
48241;SDS011;34041;51.812;4.622;2023-07-20T05:44:17;2.17;;;1.00;;
48241;SDS011;34041;51.812;4.622;2023-07-20T05:47:17;3.30;;;0.83;;
48241;SDS011;34041;51.812;4.622;2023-07-20T05:50:17;2.70;;;1.10;;
48241;SDS011;34041;51.812;4.622;2023-07-20T05:53:17;2.67;;;1.05;;
48241;SDS011;34041;51.812;4.622;2023-07-20T05:56:17;2.77;;;1.50;;
48241;SDS011;34041;51.812;4.622;2023-07-20T05:59:18;1.60;;;1.10;;
48241;SDS011;34041;51.812;4.622;2023-07-20T06:02:19;3.83;;;1.30;;
48241;SDS011;34041;51.812;4.622;2023-07-20T06:05:21;2.85;;;1.08;;
48241;SDS011;34041;51.812;4.622;2023-07-20T06:08:21;3.00;;;1.02;;
48241;SDS011;34041;51.812;4.622;2023-07-20T06:11:21;3.83;;;1.00;;
48241;SDS011;34041;51.812;4.622;2023-07-20T06:14:22;4.50;;;1.20;;
48241;SDS011;34041;51.812;4.622;2023-07-20T06:17:22;2.47;;;0.95;;
48241;SDS011;34041;51.812;4.622;2023-07-20T06:20:22;3.23;;;1.20;;
48241;SDS011;34041;51.812;4.622;2023-07-20T06:23:22;2.47;;;1.10;;
48241;SDS011;34041;51.812;4.622;2023-07-20T06:26:22;2.03;;;1.20;;
48241;SDS011;34041;51.812;4.622;2023-07-20T06:29:23;2.47;;;1.07;;
48241;SDS011;34041;51.812;4.622;2023-07-20T06:32:23;2.47;;;1.10;;
48241;SDS011;34041;51.812;4.622;2023-07-20T06:35:23;2.42;;;1.35;;
48241;SDS011;34041;51.812;4.622;2023-07-20T06:38:24;2.03;;;0.95;;
48241;SDS011;34041;51.812;4.622;2023-07-20T06:41:24;1.60;;;1.00;;
48241;SDS011;34041;51.812;4.622;2023-07-20T06:44:24;3.70;;;1.43;;
48241;SDS011;34041;51.812;4.622;2023-07-20T06:47:24;1.90;;;1.17;;
48241;SDS011;34041;51.812;4.622;2023-07-20T06:50:25;3.37;;;0.90;;
48241;SDS011;34041;51.812;4.622;2023-07-20T06:53:25;2.03;;;1.10;;
48241;SDS011;34041;51.812;4.622;2023-07-20T06:56:25;2.40;;;0.83;;
48241;SDS011;34041;51.812;4.622;2023-07-20T06:59:25;2.90;;;1.17;;
48241;SDS011;34041;51.812;4.622;2023-07-20T07:02:25;2.77;;;0.90;;
48241;SDS011;34041;51.812;4.622;2023-07-20T07:05:26;1.70;;;1.00;;
48241;SDS011;34041;51.812;4.622;2023-07-20T07:08:26;1.93;;;1.17;;
48241;SDS011;34041;51.812;4.622;2023-07-20T07:11:26;2.63;;;1.13;;
48241;SDS011;34041;51.812;4.622;2023-07-20T07:14:26;1.43;;;0.77;;
48241;SDS011;34041;51.812;4.622;2023-07-20T07:17:27;2.30;;;0.90;;
48241;SDS011;34041;51.812;4.622;2023-07-20T07:20:27;3.00;;;1.10;;
48241;SDS011;34041;51.812;4.622;2023-07-20T07:23:27;3.70;;;0.93;;
48241;SDS011;34041;51.812;4.622;2023-07-20T07:26:28;3.27;;;1.10;;
48241;SDS011;34041;51.812;4.622;2023-07-20T07:29:28;1.90;;;0.77;;
48241;SDS011;34041;51.812;4.622;2023-07-20T07:32:28;3.33;;;1.20;;
48241;SDS011;34041;51.812;4.622;2023-07-20T07:35:28;1.90;;;0.80;;
48241;SDS011;34041;51.812;4.622;2023-07-20T07:38:29;3.65;;;1.30;;
48241;SDS011;34041;51.812;4.622;2023-07-20T07:41:29;2.23;;;1.10;;
48241;SDS011;34041;51.812;4.622;2023-07-20T07:44:30;2.53;;;1.05;;
48241;SDS011;34041;51.812;4.622;2023-07-20T07:47:30;3.47;;;1.08;;
48241;SDS011;34041;51.812;4.622;2023-07-20T07:50:31;1.73;;;1.13;;
48241;SDS011;34041;51.812;4.622;2023-07-20T07:53:31;3.55;;;1.42;;
48241;SDS011;34041;51.812;4.622;2023-07-20T07:56:32;1.95;;;1.17;;
48241;SDS011;34041;51.812;4.622;2023-07-20T07:59:32;1.80;;;1.40;;
48241;SDS011;34041;51.812;4.622;2023-07-20T08:02:36;1.97;;;1.03;;
48241;SDS011;34041;51.812;4.622;2023-07-20T08:05:36;4.50;;;1.23;;
48241;SDS011;34041;51.812;4.622;2023-07-20T08:08:37;3.70;;;0.93;;
48241;SDS011;34041;51.812;4.622;2023-07-20T08:11:38;3.07;;;1.10;;
48241;SDS011;34041;51.812;4.622;2023-07-20T08:14:39;2.30;;;1.30;;
48241;SDS011;34041;51.812;4.622;2023-07-20T08:17:40;1.97;;;1.17;;
48241;SDS011;34041;51.812;4.622;2023-07-20T08:20:43;1.67;;;0.90;;
48241;SDS011;34041;51.812;4.622;2023-07-20T08:23:43;3.78;;;1.40;;
48241;SDS011;34041;51.812;4.622;2023-07-20T08:26:44;1.85;;;1.15;;
48241;SDS011;34041;51.812;4.622;2023-07-20T08:29:44;2.77;;;1.70;;
48241;SDS011;34041;51.812;4.622;2023-07-20T08:32:44;3.88;;;1.40;;
48241;SDS011;34041;51.812;4.622;2023-07-20T08:35:45;3.40;;;1.47;;
48241;SDS011;34041;51.812;4.622;2023-07-20T08:38:45;2.15;;;1.15;;
48241;SDS011;34041;51.812;4.622;2023-07-20T08:41:46;3.10;;;1.00;;
48241;SDS011;34041;51.812;4.622;2023-07-20T08:44:46;2.85;;;1.60;;
48241;SDS011;34041;51.812;4.622;2023-07-20T08:47:46;2.10;;;1.20;;
48241;SDS011;34041;51.812;4.622;2023-07-20T08:50:49;2.30;;;1.20;;
48241;SDS011;34041;51.812;4.622;2023-07-20T08:53:50;2.92;;;1.20;;
48241;SDS011;34041;51.812;4.622;2023-07-20T08:56:51;2.17;;;1.73;;
48241;SDS011;34041;51.812;4.622;2023-07-20T08:59:51;1.27;;;0.70;;
48241;SDS011;34041;51.812;4.622;2023-07-20T09:02:52;1.88;;;1.10;;
48241;SDS011;34041;51.812;4.622;2023-07-20T09:05:53;2.20;;;1.13;;
48241;SDS011;34041;51.812;4.622;2023-07-20T09:08:53;1.65;;;1.10;;
48241;SDS011;34041;51.812;4.622;2023-07-20T09:11:54;2.95;;;1.75;;
48241;SDS011;34041;51.812;4.622;2023-07-20T09:14:57;1.33;;;1.10;;
48241;SDS011;34041;51.812;4.622;2023-07-20T09:17:58;1.75;;;1.05;;
48241;SDS011;34041;51.812;4.622;2023-07-20T09:21:01;1.90;;;1.17;;
48241;SDS011;34041;51.812;4.622;2023-07-20T09:24:01;1.52;;;1.08;;
48241;SDS011;34041;51.812;4.622;2023-07-20T09:27:02;2.05;;;1.00;;
48241;SDS011;34041;51.812;4.622;2023-07-20T09:30:05;1.98;;;1.00;;
48241;SDS011;34041;51.812;4.622;2023-07-20T09:33:17;1.23;;;0.65;;
48241;SDS011;34041;51.812;4.622;2023-07-20T09:36:18;1.88;;;1.20;;
48241;SDS011;34041;51.812;4.622;2023-07-20T09:39:18;1.73;;;0.98;;
48241;SDS011;34041;51.812;4.622;2023-07-20T09:42:20;3.00;;;1.50;;
48241;SDS011;34041;51.812;4.622;2023-07-20T09:45:21;2.05;;;0.98;;
48241;SDS011;34041;51.812;4.622;2023-07-20T09:48:23;4.00;;;1.40;;
48241;SDS011;34041;51.812;4.622;2023-07-20T09:51:23;1.75;;;1.10;;
48241;SDS011;34041;51.812;4.622;2023-07-20T09:54:24;2.00;;;1.30;;
48241;SDS011;34041;51.812;4.622;2023-07-20T09:57:25;1.90;;;1.08;;
48241;SDS011;34041;51.812;4.622;2023-07-20T10:00:26;3.28;;;1.60;;
48241;SDS011;34041;51.812;4.622;2023-07-20T10:03:28;3.35;;;1.20;;
48241;SDS011;34041;51.812;4.622;2023-07-20T10:06:29;2.33;;;1.45;;
48241;SDS011;34041;51.812;4.622;2023-07-20T10:09:30;3.25;;;1.52;;
48241;SDS011;34041;51.812;4.622;2023-07-20T10:12:30;4.05;;;1.33;;
48241;SDS011;34041;51.812;4.622;2023-07-20T10:15:36;3.95;;;1.90;;
48241;SDS011;34041;51.812;4.622;2023-07-20T10:22:14;3.83;;;1.73;;
48241;SDS011;34041;51.812;4.622;2023-07-20T10:25:16;4.18;;;2.08;;
48241;SDS011;34041;51.812;4.622;2023-07-20T10:28:17;2.50;;;1.63;;
48241;SDS011;34041;51.812;4.622;2023-07-20T10:31:18;1.95;;;1.30;;
48241;SDS011;34041;51.812;4.622;2023-07-20T10:34:18;3.15;;;1.88;;
48241;SDS011;34041;51.812;4.622;2023-07-20T10:37:45;1.83;;;1.25;;
48241;SDS011;34041;51.812;4.622;2023-07-20T10:40:53;2.38;;;1.45;;
48241;SDS011;34041;51.812;4.622;2023-07-20T10:44:03;3.08;;;1.55;;
48241;SDS011;34041;51.812;4.622;2023-07-20T10:47:11;2.47;;;1.52;;
48241;SDS011;34041;51.812;4.622;2023-07-20T10:50:12;2.72;;;1.50;;
48241;SDS011;34041;51.812;4.622;2023-07-20T10:53:13;3.47;;;1.90;;
48241;SDS011;34041;51.812;4.622;2023-07-20T10:56:14;2.30;;;1.20;;
48241;SDS011;34041;51.812;4.622;2023-07-20T10:59:19;3.03;;;1.30;;
48241;SDS011;34041;51.812;4.622;2023-07-20T11:02:20;2.05;;;1.55;;
48241;SDS011;34041;51.812;4.622;2023-07-20T11:08:42;2.72;;;1.38;;
48241;SDS011;34041;51.812;4.622;2023-07-20T11:11:48;2.47;;;1.40;;
48241;SDS011;34041;51.812;4.622;2023-07-20T11:14:58;2.95;;;1.40;;
48241;SDS011;34041;51.812;4.622;2023-07-20T11:18:11;2.25;;;1.40;;
48241;SDS011;34041;51.812;4.622;2023-07-20T11:21:11;2.80;;;1.83;;
48241;SDS011;34041;51.812;4.622;2023-07-20T11:24:12;4.43;;;1.75;;
48241;SDS011;34041;51.812;4.622;2023-07-20T11:27:13;2.40;;;1.60;;
48241;SDS011;34041;51.812;4.622;2023-07-20T11:30:16;3.10;;;1.60;;
48241;SDS011;34041;51.812;4.622;2023-07-20T11:33:16;2.38;;;1.52;;
48241;SDS011;34041;51.812;4.622;2023-07-20T11:36:17;2.70;;;1.63;;
48241;SDS011;34041;51.812;4.622;2023-07-20T11:39:17;2.70;;;1.40;;
48241;SDS011;34041;51.812;4.622;2023-07-20T11:42:21;2.67;;;1.90;;
48241;SDS011;34041;51.812;4.622;2023-07-20T11:45:21;3.58;;;1.38;;
48241;SDS011;34041;51.812;4.622;2023-07-20T11:48:22;3.33;;;1.80;;
48241;SDS011;34041;51.812;4.622;2023-07-20T11:51:22;2.78;;;2.03;;
48241;SDS011;34041;51.812;4.622;2023-07-20T11:54:22;3.50;;;1.67;;
48241;SDS011;34041;51.812;4.622;2023-07-20T11:57:23;2.03;;;1.40;;
48241;SDS011;34041;51.812;4.622;2023-07-20T12:00:24;3.37;;;1.90;;
48241;SDS011;34041;51.812;4.622;2023-07-20T12:03:24;2.80;;;1.50;;
48241;SDS011;34041;51.812;4.622;2023-07-20T12:06:25;2.27;;;1.43;;
48241;SDS011;34041;51.812;4.622;2023-07-20T12:09:25;2.30;;;1.70;;
48241;SDS011;34041;51.812;4.622;2023-07-20T12:12:26;1.98;;;1.25;;
48241;SDS011;34041;51.812;4.622;2023-07-20T12:15:26;1.90;;;1.30;;
48241;SDS011;34041;51.812;4.622;2023-07-20T12:18:34;1.98;;;1.40;;
48241;SDS011;34041;51.812;4.622;2023-07-20T12:21:35;1.95;;;1.30;;
48241;SDS011;34041;51.812;4.622;2023-07-20T12:24:38;2.67;;;1.60;;
48241;SDS011;34041;51.812;4.622;2023-07-20T12:27:38;2.70;;;1.20;;
48241;SDS011;34041;51.812;4.622;2023-07-20T12:30:39;1.60;;;1.10;;
48241;SDS011;34041;51.812;4.622;2023-07-20T12:33:39;3.85;;;1.42;;
48241;SDS011;34041;51.812;4.622;2023-07-20T12:36:40;2.53;;;1.47;;
48241;SDS011;34041;51.812;4.622;2023-07-20T12:39:40;2.55;;;1.63;;
48241;SDS011;34041;51.812;4.622;2023-07-20T12:42:40;1.70;;;1.05;;
48241;SDS011;34041;51.812;4.622;2023-07-20T12:45:41;2.75;;;1.38;;
48241;SDS011;34041;51.812;4.622;2023-07-20T12:48:42;2.05;;;1.17;;
48241;SDS011;34041;51.812;4.622;2023-07-20T12:51:43;3.05;;;1.45;;
48241;SDS011;34041;51.812;4.622;2023-07-20T12:54:43;3.07;;;1.37;;
48241;SDS011;34041;51.812;4.622;2023-07-20T12:57:43;3.35;;;1.45;;
48241;SDS011;34041;51.812;4.622;2023-07-20T13:00:43;3.07;;;1.40;;
48241;SDS011;34041;51.812;4.622;2023-07-20T13:03:44;2.93;;;1.53;;
48241;SDS011;34041;51.812;4.622;2023-07-20T13:06:44;1.60;;;1.00;;
48241;SDS011;34041;51.812;4.622;2023-07-20T13:09:44;2.97;;;1.83;;
48241;SDS011;34041;51.812;4.622;2023-07-20T13:12:44;4.07;;;1.27;;
48241;SDS011;34041;51.812;4.622;2023-07-20T13:15:45;2.17;;;1.37;;
48241;SDS011;34041;51.812;4.622;2023-07-20T13:18:46;2.53;;;1.55;;
48241;SDS011;34041;51.812;4.622;2023-07-20T13:21:46;2.60;;;1.60;;
48241;SDS011;34041;51.812;4.622;2023-07-20T13:24:46;4.20;;;1.40;;
48241;SDS011;34041;51.812;4.622;2023-07-20T13:27:50;1.50;;;1.00;;
48241;SDS011;34041;51.812;4.622;2023-07-20T13:30:50;2.07;;;1.30;;
48241;SDS011;34041;51.812;4.622;2023-07-20T13:33:50;3.35;;;1.23;;
48241;SDS011;34041;51.812;4.622;2023-07-20T13:36:51;2.35;;;1.35;;
48241;SDS011;34041;51.812;4.622;2023-07-20T13:39:51;1.80;;;1.03;;
48241;SDS011;34041;51.812;4.622;2023-07-20T13:42:51;2.23;;;1.40;;
48241;SDS011;34041;51.812;4.622;2023-07-20T13:45:52;3.22;;;1.25;;
48241;SDS011;34041;51.812;4.622;2023-07-20T13:48:52;2.17;;;0.95;;
48241;SDS011;34041;51.812;4.622;2023-07-20T13:51:52;2.77;;;1.67;;
48241;SDS011;34041;51.812;4.622;2023-07-20T13:54:53;4.00;;;1.42;;
48241;SDS011;34041;51.812;4.622;2023-07-20T13:57:53;3.15;;;1.13;;
48241;SDS011;34041;51.812;4.622;2023-07-20T14:00:53;2.17;;;1.17;;
48241;SDS011;34041;51.812;4.622;2023-07-20T14:03:56;2.10;;;1.35;;
48241;SDS011;34041;51.812;4.622;2023-07-20T14:06:56;2.33;;;1.10;;
48241;SDS011;34041;51.812;4.622;2023-07-20T14:09:56;3.77;;;1.50;;
48241;SDS011;34041;51.812;4.622;2023-07-20T14:12:56;1.73;;;0.87;;
48241;SDS011;34041;51.812;4.622;2023-07-20T14:15:57;1.97;;;1.20;;
48241;SDS011;34041;51.812;4.622;2023-07-20T14:18:57;3.37;;;1.33;;
48241;SDS011;34041;51.812;4.622;2023-07-20T14:21:58;3.30;;;1.02;;
48241;SDS011;34041;51.812;4.622;2023-07-20T14:24:59;2.33;;;1.48;;
48241;SDS011;34041;51.812;4.622;2023-07-20T14:27:59;2.57;;;1.30;;
48241;SDS011;34041;51.812;4.622;2023-07-20T14:31:00;3.07;;;1.27;;
48241;SDS011;34041;51.812;4.622;2023-07-20T14:34:00;3.07;;;1.30;;
48241;SDS011;34041;51.812;4.622;2023-07-20T14:37:01;3.83;;;2.03;;
48241;SDS011;34041;51.812;4.622;2023-07-20T14:40:01;1.90;;;1.27;;
48241;SDS011;34041;51.812;4.622;2023-07-20T14:43:05;1.83;;;0.93;;
48241;SDS011;34041;51.812;4.622;2023-07-20T14:46:05;2.13;;;1.30;;
48241;SDS011;34041;51.812;4.622;2023-07-20T14:49:05;2.78;;;1.20;;
48241;SDS011;34041;51.812;4.622;2023-07-20T14:52:06;1.73;;;1.13;;
48241;SDS011;34041;51.812;4.622;2023-07-20T14:55:06;1.90;;;1.05;;
